| time (UTC) | temp F | wind direction | speed knots | gust knots | rain 1hr in | rain 24hr in | rain mn in | humidity % | barometer mb |
| 20260906064507 | 80 | 260 | 2.6 | 3.5 | 0.00 | 0.00 | 0.00 | 56 | 1022.1 |
| 20260906063041 | 79 | 253 | 2.6 | 4.3 | 0.00 | 0.00 | 0.00 | 57 | 1022.2 |
| 20260906063008 | 79 | 253 | 2.6 | 4.3 | 0.00 | 0.00 | 0.00 | 57 | 1022.2 |
| 20260906061508 | 78 | 253 | 3.5 | 5.2 | 0.00 | 0.00 | 0.00 | 58 | 1022.2 |
| 20260906060008 | 77 | 247 | 3.5 | 5.2 | 0.00 | 0.00 | 0.00 | 58 | 1022.0 |
| 20260906054544 | 77 | 245 | 5.2 | 6.1 | 0.00 | 0.00 | 0.00 | 59 | 1021.7 |
| 20260906054506 | 77 | 245 | 5.2 | 6.1 | 0.00 | 0.00 | 0.00 | 59 | 1021.7 |
| 20260906053006 | 77 | 246 | 4.3 | 6.1 | 0.00 | 0.00 | 0.00 | 59 | 1021.6 |
| 20260906051507 | 77 | 251 | 5.2 | 6.1 | 0.00 | 0.00 | 0.00 | 59 | 1021.6 |
| 20260906050007 | 77 | 251 | 6.1 | 6.1 | 0.00 | 0.00 | 0.00 | 58 | 1021.4 |
| 20260906044558 | 76 | 252 | 5.2 | 5.2 | 0.00 | 0.00 | 0.00 | 56 | 1021.2 |
| 20260906044507 | 76 | 252 | 5.2 | 5.2 | 0.00 | 0.00 | 0.00 | 56 | 1021.2 |
| 20260906043008 | 76 | 254 | 5.2 | 6.1 | 0.00 | 0.00 | 0.00 | 56 | 1021.1 |
| 20260906041508 | 75 | 252 | 5.2 | 6.1 | 0.00 | 0.00 | 0.00 | 58 | 1021.0 |
| 20260906040007 | 74 | 244 | 3.5 | 4.3 | 0.00 | 0.00 | 0.00 | 60 | 1020.9 |
| 20260906034509 | 73 | 247 | 3.5 | 4.3 | 0.00 | 0.00 | 0.00 | 63 | 1020.7 |
| 20260906033008 | 73 | 248 | 1.7 | 2.6 | 0.00 | 0.00 | 0.00 | 62 | 1020.7 |
| 20260906031507 | 72 | 256 | 0.9 | 3.5 | 0.00 | 0.00 | 0.00 | 63 | 1020.5 |
| 20260906030009 | 72 | 271 | 2.6 | 4.3 | 0.00 | 0.00 | 0.00 | 62 | 1020.5 |
| 20260906024506 | 72 | 291 | 3.5 | 4.3 | 0.00 | 0.00 | 0.00 | 65 | 1020.7 |
| 20260906023009 | 76 | 258 | 3.5 | 4.3 | 0.00 | 0.00 | 0.00 | 57 | 1020.4 |
| 20260906021507 | 77 | 249 | 4.3 | 5.2 | 0.00 | 0.00 | 0.00 | 57 | 1020.0 |
| 20260906020041 | 76 | 253 | 6.1 | 7.0 | 0.00 | 0.00 | 0.00 | 57 | 1020.0 |
| 20260906020009 | 76 | 253 | 6.1 | 7.0 | 0.00 | 0.00 | 0.00 | 57 | 1020.0 |
| 20260906014544 | 77 | 251 | 4.3 | 5.2 | 0.00 | 0.00 | 0.00 | 57 | 1019.9 |
| 20260906014511 | 77 | 251 | 4.3 | 5.2 | 0.00 | 0.00 | 0.00 | 57 | 1019.9 |
| 20260906013008 | 76 | 235 | 1.7 | 3.5 | 0.00 | 0.00 | 0.00 | 57 | 1019.8 |
| 20260906011509 | 75 | 213 | 0.0 | 1.7 | 0.00 | 0.00 | 0.00 | 58 | 1020.0 |
| 20260906010016 | 78 | 244 | 1.7 | 4.3 | 0.00 | 0.00 | 0.00 | 53 | 1019.9 |
| 20260906004508 | 79 | 253 | 5.2 | 6.1 | 0.00 | 0.00 | 0.00 | 52 | 1019.8 |
| 20260906003007 | 77 | 230 | 0.9 | 1.7 | 0.00 | 0.00 | 0.00 | 52 | 1019.7 |
| 20260906001509 | 77 | 245 | 0.9 | 3.5 | 0.00 | 0.00 | 0.00 | 52 | 1019.9 |
| 20260906000008 | 79 | 247 | 3.5 | 5.2 | 0.00 | 0.00 | 0.00 | 50 | 1019.7 |
| 20260905234507 | 79 | 248 | 2.6 | 3.5 | 0.00 | 0.00 | 0.00 | 50 | 1019.7 |
| 20260905233008 | 79 | 248 | 0.9 | 2.6 | 0.00 | 0.00 | 0.00 | 49 | 1019.9 |
| 20260905231506 | 79 | 252 | 2.6 | 2.6 | 0.00 | 0.00 | 0.00 | 48 | 1019.7 |
| 20260905230006 | 79 | 0 | 0.0 | 0.0 | 0.00 | 0.00 | 0.00 | 55 | 1020.0 |
| 20260905224506 | 81 | 270 | 0.9 | 0.9 | 0.00 | 0.00 | 0.00 | 53 | 1019.7 |
| 20260905223008 | 80 | 248 | 0.0 | 0.9 | 0.00 | 0.00 | 0.00 | 55 | 1019.6 |
| 20260905221508 | 80 | 0 | 0.0 | 0.0 | 0.00 | 0.00 | 0.00 | 49 | 1019.7 |
| 20260905220006 | 80 | 270 | 0.0 | 0.9 | 0.00 | 0.00 | 0.00 | 54 | 1019.3 |
| 20260905214506 | 81 | 0 | 0.0 | 0.0 | 0.00 | 0.00 | 0.00 | 49 | 1019.4 |
| 20260905213007 | 81 | 0 | 0.0 | 0.0 | 0.00 | 0.00 | 0.00 | 46 | 1019.3 |
| 20260905211507 | 81 | 270 | 0.0 | 0.9 | 0.00 | 0.00 | 0.00 | 45 | 1019.4 |
| 20260905210006 | 81 | 270 | 0.0 | 0.9 | 0.00 | 0.00 | 0.00 | 44 | 1019.2 |
| 20260905204508 | 82 | 270 | 0.0 | 1.7 | 0.00 | 0.00 | 0.00 | 45 | 1019.2 |
| 20260905203007 | 82 | 270 | 0.9 | 1.7 | 0.00 | 0.00 | 0.00 | 45 | 1019.2 |
| 20260905201506 | 81 | 1 | 0.0 | 0.9 | 0.00 | 0.00 | 0.00 | 45 | 1019.3 |
| 20260905200009 | 83 | 270 | 0.0 | 0.0 | 0.00 | 0.00 | 0.00 | 42 | 1019.2 |
| 20260905194554 | 82 | 274 | 0.9 | 2.6 | 0.00 | 0.00 | 0.00 | 45 | 1019.1 |
| 20260905194507 | 82 | 274 | 0.9 | 2.6 | 0.00 | 0.00 | 0.00 | 45 | 1019.1 |
| 20260905193009 | 84 | 117 | 2.6 | 5.2 | 0.00 | 0.00 | 0.00 | 42 | 1019.0 |
| 20260905191507 | 84 | 111 | 5.2 | 7.0 | 0.00 | 0.00 | 0.00 | 42 | 1018.7 |
| 20260905190010 | 84 | 113 | 7.0 | 7.8 | 0.00 | 0.00 | 0.00 | 43 | 1018.6 |
| 20260905184507 | 84 | 114 | 6.1 | 7.0 | 0.00 | 0.00 | 0.00 | 46 | 1018.6 |
| 20260905183010 | 84 | 113 | 4.3 | 5.2 | 0.00 | 0.00 | 0.00 | 46 | 1018.6 |
| 20260905181550 | 84 | 105 | 4.3 | 5.2 | 0.00 | 0.00 | 0.00 | 46 | 1018.3 |
| 20260905181512 | 84 | 105 | 4.3 | 5.2 | 0.00 | 0.00 | 0.00 | 46 | 1018.3 |
| 20260905180047 | 85 | 95 | 4.3 | 5.2 | 0.00 | 0.00 | 0.00 | 45 | 1018.1 |
| 20260905180013 | 85 | 95 | 4.3 | 5.2 | 0.00 | 0.00 | 0.00 | 45 | 1018.1 |
| 20260905174552 | 85 | 94 | 4.3 | 5.2 | 0.00 | 0.00 | 0.00 | 42 | 1018.1 |
| 20260905174507 | 85 | 94 | 4.3 | 5.2 | 0.00 | 0.00 | 0.00 | 42 | 1018.1 |
| 20260905173009 | 85 | 94 | 6.1 | 7.8 | 0.00 | 0.00 | 0.00 | 41 | 1017.6 |
| 20260905171509 | 86 | 90 | 7.0 | 7.8 | 0.00 | 0.00 | 0.00 | 40 | 1017.9 |
| 20260905170006 | 86 | 97 | 9.6 | 10.4 | 0.00 | 0.00 | 0.00 | 39 | 1017.5 |
| 20260905164541 | 87 | 108 | 7.0 | 9.6 | 0.00 | 0.00 | 0.00 | 37 | 1017.7 |
| 20260905164508 | 87 | 108 | 7.0 | 9.6 | 0.00 | 0.00 | 0.00 | 37 | 1017.7 |
| 20260905163059 | 87 | 107 | 9.6 | 11.3 | 0.00 | 0.00 | 0.00 | 37 | 1017.7 |
| 20260905163008 | 87 | 107 | 9.6 | 11.3 | 0.00 | 0.00 | 0.00 | 37 | 1017.7 |
| 20260905161507 | 87 | 106 | 9.6 | 10.4 | 0.00 | 0.00 | 0.00 | 34 | 1017.5 |
| 20260905160009 | 88 | 103 | 9.6 | 13.0 | 0.00 | 0.00 | 0.00 | 34 | 1017.4 |
| 20260905154505 | 88 | 100 | 9.6 | 10.4 | 0.00 | 0.00 | 0.00 | 33 | 1017.3 |
| 20260905153008 | 88 | 106 | 9.6 | 12.2 | 0.00 | 0.00 | 0.00 | 34 | 1017.4 |
| 20260905151507 | 88 | 104 | 8.7 | 11.3 | 0.00 | 0.00 | 0.00 | 35 | 1017.3 |
| 20260905150008 | 89 | 103 | 7.8 | 10.4 | 0.00 | 0.00 | 0.00 | 38 | 1017.4 |
| 20260905144507 | 89 | 100 | 7.8 | 10.4 | 0.00 | 0.00 | 0.00 | 36 | 1017.4 |
| 20260905143006 | 90 | 92 | 6.1 | 7.8 | 0.00 | 0.00 | 0.00 | 36 | 1017.6 |
| 20260905141508 | 91 | 89 | 5.2 | 7.8 | 0.00 | 0.00 | 0.00 | 36 | 1017.6 |
| 20260905140005 | 92 | 104 | 6.1 | 7.8 | 0.00 | 0.00 | 0.00 | 34 | 1017.5 |
| 20260905134506 | 91 | 90 | 5.2 | 10.4 | 0.00 | 0.00 | 0.00 | 31 | 1017.8 |
| 20260905133008 | 92 | 87 | 5.2 | 7.8 | 0.00 | 0.00 | 0.00 | 31 | 1017.7 |
| 20260905131509 | 92 | 82 | 4.3 | 7.8 | 0.00 | 0.00 | 0.00 | 32 | 1017.9 |
| 20260905130009 | 93 | 72 | 4.3 | 7.0 | 0.00 | 0.00 | 0.00 | 30 | 1018.0 |
| 20260905124614 | 92 | 92 | 5.2 | 7.8 | 0.00 | 0.00 | 0.00 | 31 | 1017.8 |
| 20260905124510 | 92 | 92 | 5.2 | 7.8 | 0.00 | 0.00 | 0.00 | 31 | 1017.8 |
| 20260905123010 | 92 | 93 | 6.1 | 10.4 | 0.00 | 0.00 | 0.00 | 33 | 1018.0 |
| 20260905121508 | 92 | 77 | 5.2 | 9.6 | 0.00 | 0.00 | 0.00 | 31 | 1018.1 |
| 20260905120058 | 91 | 79 | 6.1 | 8.7 | 0.00 | 0.00 | 0.00 | 32 | 1018.3 |
| 20260905120011 | 91 | 79 | 6.1 | 8.7 | 0.00 | 0.00 | 0.00 | 32 | 1018.3 |
| 20260905114507 | 91 | 78 | 7.0 | 8.7 | 0.00 | 0.00 | 0.00 | 33 | 1018.4 |
| 20260905113051 | 92 | 37 | 5.2 | 7.8 | 0.00 | 0.00 | 0.00 | 31 | 1018.4 |
| 20260905113008 | 92 | 37 | 5.2 | 7.8 | 0.00 | 0.00 | 0.00 | 31 | 1018.4 |
| 20260905111507 | 91 | 94 | 7.8 | 12.2 | 0.00 | 0.00 | 0.00 | 35 | 1018.4 |
| 20260905110006 | 93 | 48 | 4.3 | 6.1 | 0.00 | 0.00 | 0.00 | 32 | 1018.2 |
| 20260905104507 | 92 | 65 | 5.2 | 8.7 | 0.00 | 0.00 | 0.00 | 35 | 1018.4 |
| 20260905103043 | 91 | 26 | 5.2 | 8.7 | 0.00 | 0.00 | 0.00 | 36 | 1018.3 |
| 20260905103007 | 91 | 26 | 5.2 | 8.7 | 0.00 | 0.00 | 0.00 | 36 | 1018.3 |
| 20260905101508 | 90 | 77 | 5.2 | 6.1 | 0.00 | 0.00 | 0.00 | 36 | 1018.7 |
| 20260905100006 | 90 | 74 | 3.5 | 6.1 | 0.00 | 0.00 | 0.00 | 42 | 1018.7 |
| 20260905094506 | 90 | 54 | 4.3 | 7.8 | 0.00 | 0.00 | 0.00 | 36 | 1018.5 |
| 20260905093007 | 92 | 26 | 4.3 | 7.0 | 0.00 | 0.00 | 0.00 | 33 | 1018.4 |
| 20260905091508 | 93 | 59 | 3.5 | 6.1 | 0.00 | 0.00 | 0.00 | 30 | 1018.6 |
| 20260905090008 | 91 | 316 | 3.5 | 5.2 | 0.00 | 0.00 | 0.00 | 28 | 1018.2 |
| 20260905084508 | 91 | 23 | 3.5 | 5.2 | 0.00 | 0.00 | 0.00 | 29 | 1018.1 |
| 20260905083008 | 92 | 342 | 2.6 | 5.2 | 0.00 | 0.00 | 0.00 | 34 | 1018.0 |
| 20260905081507 | 91 | 332 | 3.5 | 6.1 | 0.00 | 0.00 | 0.00 | 33 | 1017.7 |
| 20260905080008 | 92 | 43 | 1.7 | 2.6 | 0.00 | 0.00 | 0.00 | 30 | 1017.9 |
| 20260905074548 | 92 | 201 | 1.7 | 4.3 | 0.00 | 0.00 | 0.00 | 30 | 1017.8 |
| 20260905074507 | 92 | 201 | 1.7 | 4.3 | 0.00 | 0.00 | 0.00 | 30 | 1017.8 |
| 20260905073054 | 90 | 101 | 0.9 | 1.7 | 0.00 | 0.00 | 0.00 | 32 | 1017.4 |
| 20260905073008 | 90 | 101 | 0.9 | 1.7 | 0.00 | 0.00 | 0.00 | 32 | 1017.4 |
| 20260905071542 | 88 | 106 | 0.9 | 2.6 | 0.00 | 0.00 | 0.00 | 35 | 1017.6 |
| 20260905071508 | 88 | 106 | 0.9 | 2.6 | 0.00 | 0.00 | 0.00 | 35 | 1017.6 |
| 20260905070110 | 87 | 110 | 0.9 | 2.6 | 0.00 | 0.00 | 0.00 | 34 | 1017.6 |
| 20260905070008 | 87 | 110 | 0.9 | 2.6 | 0.00 | 0.00 | 0.00 | 34 | 1017.6 |